Lowville, NY

3:55 PM EDT on October 16, 2019 (GMT -0400)
Highland Acres | | Change Station

Elev 1621 ft 43.80 °N, 75.69 °W | Updated 10 minutes ago

Rain
Rain
52.3 °F
Feels Like 52.3 °F
N
1
Wind Variable Wind from SSE
Gusts 9.0 mph

Today
High -- | Low -- °F
--% Chance of Precip.
Yesterday
High -- | Low -- °F
Precip. -- in
Pressure 29.59 in
Visibility 10.0 miles
Clouds Few 3900 ft
Scattered Clouds 4500 ft
Mostly Cloudy 6000 ft
Overcast 9000 ft
Dew Point 50 °F
Humidity 93%
Rainfall 0.06 in
Snow Depth Not available.
7:17 AM 6:17 PM
Waning Gibbous, 92% visible
SPECI KGTB 161950Z AUTO 15015G23KT 10SM -RA FEW039 SCT045 BKN060 OVC090 13/10 A2958 RMK AO2 DZB1858E08RAB08E30RAB37E47RAB50 SLP018 $
Pressure 29.59 in
Visibility 10.0 miles
Clouds Few 3900 ft
Scattered Clouds 4500 ft
Mostly Cloudy 6000 ft
Overcast 9000 ft
Dew Point 50 °F
Humidity 93%
Rainfall 0.06 in
Snow Depth Not available.
7:17 AM 6:17 PM
Waning Gibbous, 92% visible
SPECI KGTB 161950Z AUTO 15015G23KT 10SM -RA FEW039 SCT045 BKN060 OVC090 13/10 A2958 RMK AO2 DZB1858E08RAB08E30RAB37E47RAB50 SLP018 $

Get Severe Weather Alerts

Thanks for signing up!

Be on the lookout for a verification email in your inbox.

You'll start receiving the daily forecast at 6 AM.

×

10-Day Weather Forecast

Almanac

Astronomy

Oct. 16, 2019 Rise Set
Actual Time
Civil Twilight
Nautical Twilight
Astronomical Twilight
Moon
Length of Visible Light
Length of Day
Tomorrow will be .
, % of the Moon is Illuminated

Today's Extremes

State Highs State Lows

Community

WunderPhotos

Category 6

Welcome to Category 6. This is the collective home for Weather Underground's featured writeups by Dr. Jeff Masters (right), Bob Henson (left), Chris Burt, and other regular contributors.

Nearby

Air Quality

  Air Quality AQ Index Pollutant
Not available.

Snow Depth

Station Depth Elevation

Earthquake Activity

City Distance Mag. Time & Date
Minimum magnitude displayed is 2.5.

Coastal Water Temperatures

Place Temperature

Stations

Nearby Weather Stations

Station Location Temp. Windchill Dew Point Humidity Wind Precip. Elev Updated Type
                   

Watches & Warnings

There are currently no watches in effect.